sensor_id;sensor_type;location;lat;lon;timestamp;pressure;altitude;pressure_sealevel;temperature;humidity
23899;BME280;20544;50.018;20.010;2024-02-26T00:01:41;97856.63;;;7.71;100.00
23899;BME280;20544;50.018;20.010;2024-02-26T00:05:00;97858.43;;;7.71;100.00
23899;BME280;20544;50.018;20.010;2024-02-26T00:08:19;97856.98;;;7.68;100.00
23899;BME280;20544;50.018;20.010;2024-02-26T00:11:37;97863.71;;;7.71;100.00
23899;BME280;20544;50.018;20.010;2024-02-26T00:14:55;97864.35;;;7.73;100.00
23899;BME280;20544;50.018;20.010;2024-02-26T00:18:13;97867.28;;;7.63;100.00
23899;BME280;20544;50.018;20.010;2024-02-26T00:21:32;97860.11;;;7.57;100.00
23899;BME280;20544;50.018;20.010;2024-02-26T00:24:49;97858.27;;;7.57;100.00
23899;BME280;20544;50.018;20.010;2024-02-26T00:28:08;97852.73;;;7.52;100.00
23899;BME280;20544;50.018;20.010;2024-02-26T00:31:26;97844.36;;;7.49;100.00
23899;BME280;20544;50.018;20.010;2024-02-26T00:34:44;97855.32;;;7.31;100.00
23899;BME280;20544;50.018;20.010;2024-02-26T00:38:02;97854.14;;;7.18;100.00
23899;BME280;20544;50.018;20.010;2024-02-26T00:41:20;97848.03;;;7.18;100.00
23899;BME280;20544;50.018;20.010;2024-02-26T00:44:38;97849.78;;;7.25;100.00
23899;BME280;20544;50.018;20.010;2024-02-26T00:47:56;97850.95;;;7.38;100.00
23899;BME280;20544;50.018;20.010;2024-02-26T00:51:13;97839.56;;;7.37;100.00
23899;BME280;20544;50.018;20.010;2024-02-26T00:54:32;97836.86;;;7.31;100.00
23899;BME280;20544;50.018;20.010;2024-02-26T00:57:50;97832.77;;;7.28;100.00
23899;BME280;20544;50.018;20.010;2024-02-26T01:01:08;97835.14;;;7.23;100.00
23899;BME280;20544;50.018;20.010;2024-02-26T01:04:26;97841.48;;;7.28;100.00
23899;BME280;20544;50.018;20.010;2024-02-26T01:07:44;97839.39;;;7.24;100.00
23899;BME280;20544;50.018;20.010;2024-02-26T01:11:02;97838.32;;;7.18;100.00
23899;BME280;20544;50.018;20.010;2024-02-26T01:14:20;97828.84;;;7.24;100.00
23899;BME280;20544;50.018;20.010;2024-02-26T01:17:38;97827.77;;;7.18;100.00
23899;BME280;20544;50.018;20.010;2024-02-26T01:20:57;97828.42;;;7.05;100.00
23899;BME280;20544;50.018;20.010;2024-02-26T01:24:16;97837.41;;;6.96;100.00
23899;BME280;20544;50.018;20.010;2024-02-26T01:27:34;97842.94;;;6.86;100.00
23899;BME280;20544;50.018;20.010;2024-02-26T01:30:54;97839.05;;;6.82;100.00
23899;BME280;20544;50.018;20.010;2024-02-26T01:34:12;97834.95;;;6.79;100.00
23899;BME280;20544;50.018;20.010;2024-02-26T01:37:30;97836.41;;;6.82;100.00
23899;BME280;20544;50.018;20.010;2024-02-26T01:40:48;97834.69;;;6.89;100.00
23899;BME280;20544;50.018;20.010;2024-02-26T01:44:06;97836.88;;;7.01;100.00
23899;BME280;20544;50.018;20.010;2024-02-26T01:47:24;97842.20;;;6.77;100.00
23899;BME280;20544;50.018;20.010;2024-02-26T01:50:43;97840.83;;;6.67;100.00
23899;BME280;20544;50.018;20.010;2024-02-26T01:54:02;97847.09;;;6.51;100.00
23899;BME280;20544;50.018;20.010;2024-02-26T01:57:20;97844.80;;;6.47;100.00
23899;BME280;20544;50.018;20.010;2024-02-26T02:00:39;97847.52;;;6.39;100.00
23899;BME280;20544;50.018;20.010;2024-02-26T02:03:58;97841.08;;;6.42;100.00
23899;BME280;20544;50.018;20.010;2024-02-26T02:07:17;97835.16;;;6.40;100.00
23899;BME280;20544;50.018;20.010;2024-02-26T02:10:36;97829.14;;;6.31;100.00
23899;BME280;20544;50.018;20.010;2024-02-26T02:13:54;97838.22;;;6.28;100.00
23899;BME280;20544;50.018;20.010;2024-02-26T02:17:13;97835.16;;;6.17;100.00
23899;BME280;20544;50.018;20.010;2024-02-26T02:20:35;97843.95;;;6.09;100.00
23899;BME280;20544;50.018;20.010;2024-02-26T02:23:53;97843.95;;;6.09;100.00
23899;BME280;20544;50.018;20.010;2024-02-26T02:27:11;97844.79;;;6.09;100.00
23899;BME280;20544;50.018;20.010;2024-02-26T02:30:30;97844.79;;;6.09;100.00
23899;BME280;20544;50.018;20.010;2024-02-26T02:33:49;97843.84;;;6.02;100.00
23899;BME280;20544;50.018;20.010;2024-02-26T02:37:08;97841.69;;;6.06;100.00
23899;BME280;20544;50.018;20.010;2024-02-26T02:40:25;97838.11;;;5.98;100.00
23899;BME280;20544;50.018;20.010;2024-02-26T02:43:43;97839.57;;;6.01;100.00
23899;BME280;20544;50.018;20.010;2024-02-26T02:47:01;97846.67;;;5.92;100.00
23899;BME280;20544;50.018;20.010;2024-02-26T02:50:19;97849.71;;;5.81;100.00
23899;BME280;20544;50.018;20.010;2024-02-26T02:53:39;97854.67;;;5.76;100.00
23899;BME280;20544;50.018;20.010;2024-02-26T02:56:57;97854.13;;;5.80;100.00
23899;BME280;20544;50.018;20.010;2024-02-26T03:00:16;97850.19;;;5.85;100.00
23899;BME280;20544;50.018;20.010;2024-02-26T03:03:35;97851.64;;;5.87;100.00
23899;BME280;20544;50.018;20.010;2024-02-26T03:06:53;97856.30;;;5.45;100.00
23899;BME280;20544;50.018;20.010;2024-02-26T03:10:11;97857.66;;;5.33;100.00
23899;BME280;20544;50.018;20.010;2024-02-26T03:13:30;97854.91;;;5.26;100.00
23899;BME280;20544;50.018;20.010;2024-02-26T03:16:48;97852.65;;;5.15;100.00
23899;BME280;20544;50.018;20.010;2024-02-26T03:20:09;97835.78;;;5.01;100.00
23899;BME280;20544;50.018;20.010;2024-02-26T03:23:29;97846.11;;;5.02;100.00
23899;BME280;20544;50.018;20.010;2024-02-26T03:26:47;97837.02;;;5.13;100.00
23899;BME280;20544;50.018;20.010;2024-02-26T03:30:07;97837.25;;;5.04;100.00
23899;BME280;20544;50.018;20.010;2024-02-26T03:33:26;97824.97;;;4.88;100.00
23899;BME280;20544;50.018;20.010;2024-02-26T03:36:44;97824.34;;;4.77;100.00
23899;BME280;20544;50.018;20.010;2024-02-26T03:40:02;97825.47;;;4.75;100.00
23899;BME280;20544;50.018;20.010;2024-02-26T03:43:23;97812.69;;;4.72;100.00
23899;BME280;20544;50.018;20.010;2024-02-26T03:46:42;97815.84;;;4.59;100.00
23899;BME280;20544;50.018;20.010;2024-02-26T03:50:00;97809.13;;;4.48;100.00
23899;BME280;20544;50.018;20.010;2024-02-26T03:53:18;97806.01;;;4.44;100.00
23899;BME280;20544;50.018;20.010;2024-02-26T03:56:36;97819.14;;;4.44;100.00
23899;BME280;20544;50.018;20.010;2024-02-26T03:59:54;97807.97;;;4.42;100.00
23899;BME280;20544;50.018;20.010;2024-02-26T04:03:15;97810.77;;;4.41;100.00
23899;BME280;20544;50.018;20.010;2024-02-26T04:06:33;97800.61;;;4.29;100.00
23899;BME280;20544;50.018;20.010;2024-02-26T04:09:51;97800.29;;;4.24;100.00
23899;BME280;20544;50.018;20.010;2024-02-26T04:13:11;97802.91;;;4.24;100.00
23899;BME280;20544;50.018;20.010;2024-02-26T04:16:29;97803.72;;;4.25;100.00
23899;BME280;20544;50.018;20.010;2024-02-26T04:19:47;97794.69;;;4.27;100.00
23899;BME280;20544;50.018;20.010;2024-02-26T04:23:05;97791.44;;;4.25;100.00
23899;BME280;20544;50.018;20.010;2024-02-26T04:26:23;97783.90;;;4.14;100.00
23899;BME280;20544;50.018;20.010;2024-02-26T04:29:41;97789.15;;;4.14;100.00
23899;BME280;20544;50.018;20.010;2024-02-26T04:32:59;97789.78;;;4.16;100.00
23899;BME280;20544;50.018;20.010;2024-02-26T04:36:18;97794.21;;;4.07;100.00
23899;BME280;20544;50.018;20.010;2024-02-26T04:39:36;97788.97;;;4.07;100.00
23899;BME280;20544;50.018;20.010;2024-02-26T04:42:55;97786.36;;;3.99;100.00
23899;BME280;20544;50.018;20.010;2024-02-26T04:46:13;97781.77;;;3.93;100.00
23899;BME280;20544;50.018;20.010;2024-02-26T04:49:32;97793.56;;;3.97;100.00
23899;BME280;20544;50.018;20.010;2024-02-26T04:52:50;97790.12;;;4.04;100.00
23899;BME280;20544;50.018;20.010;2024-02-26T04:56:08;97793.06;;;3.93;100.00
23899;BME280;20544;50.018;20.010;2024-02-26T04:59:26;97793.39;;;3.82;100.00
23899;BME280;20544;50.018;20.010;2024-02-26T05:02:44;97787.15;;;3.75;100.00
23899;BME280;20544;50.018;20.010;2024-02-26T05:06:02;97788.27;;;3.64;100.00
23899;BME280;20544;50.018;20.010;2024-02-26T05:09:21;97786.80;;;3.53;100.00
23899;BME280;20544;50.018;20.010;2024-02-26T05:12:39;97790.06;;;3.47;100.00
23899;BME280;20544;50.018;20.010;2024-02-26T05:15:57;97790.03;;;3.38;100.00
23899;BME280;20544;50.018;20.010;2024-02-26T05:19:15;97792.99;;;3.44;100.00
23899;BME280;20544;50.018;20.010;2024-02-26T05:22:33;97794.97;;;3.42;100.00
23899;BME280;20544;50.018;20.010;2024-02-26T05:25:52;97794.13;;;3.41;100.00
23899;BME280;20544;50.018;20.010;2024-02-26T05:29:10;97789.42;;;3.53;100.00
23899;BME280;20544;50.018;20.010;2024-02-26T05:32:28;97795.47;;;3.45;100.00
23899;BME280;20544;50.018;20.010;2024-02-26T05:35:46;97797.13;;;3.54;100.00
23899;BME280;20544;50.018;20.010;2024-02-26T05:39:04;97804.14;;;3.46;100.00
23899;BME280;20544;50.018;20.010;2024-02-26T05:42:24;97810.83;;;3.32;100.00
23899;BME280;20544;50.018;20.010;2024-02-26T05:45:42;97812.27;;;3.26;100.00
23899;BME280;20544;50.018;20.010;2024-02-26T05:49:00;97814.09;;;3.26;100.00
23899;BME280;20544;50.018;20.010;2024-02-26T05:52:18;97820.55;;;3.48;100.00
23899;BME280;20544;50.018;20.010;2024-02-26T05:55:35;97818.09;;;3.54;100.00
23899;BME280;20544;50.018;20.010;2024-02-26T05:58:54;97819.91;;;3.54;100.00
23899;BME280;20544;50.018;20.010;2024-02-26T06:02:11;97822.36;;;3.55;100.00
23899;BME280;20544;50.018;20.010;2024-02-26T06:05:33;97831.38;;;3.53;100.00
23899;BME280;20544;50.018;20.010;2024-02-26T06:08:57;97828.11;;;3.67;100.00
23899;BME280;20544;50.018;20.010;2024-02-26T06:12:15;97824.03;;;3.81;100.00
23899;BME280;20544;50.018;20.010;2024-02-26T06:15:33;97835.22;;;3.92;100.00
23899;BME280;20544;50.018;20.010;2024-02-26T06:18:51;97821.95;;;4.01;100.00
23899;BME280;20544;50.018;20.010;2024-02-26T06:22:10;97828.34;;;3.99;100.00
23899;BME280;20544;50.018;20.010;2024-02-26T06:25:28;97831.62;;;3.93;100.00
23899;BME280;20544;50.018;20.010;2024-02-26T06:28:48;97819.00;;;4.13;100.00
23899;BME280;20544;50.018;20.010;2024-02-26T06:32:07;97834.09;;;4.44;100.00
23899;BME280;20544;50.018;20.010;2024-02-26T06:35:25;97834.55;;;4.64;100.00
23899;BME280;20544;50.018;20.010;2024-02-26T06:38:44;97835.31;;;4.81;100.00
23899;BME280;20544;50.018;20.010;2024-02-26T06:42:04;97839.75;;;4.89;100.00
23899;BME280;20544;50.018;20.010;2024-02-26T06:45:26;97851.88;;;4.90;100.00
23899;BME280;20544;50.018;20.010;2024-02-26T06:48:55;97849.86;;;5.08;100.00
23899;BME280;20544;50.018;20.010;2024-02-26T06:52:27;97857.59;;;5.10;100.00
23899;BME280;20544;50.018;20.010;2024-02-26T06:55:45;97857.36;;;5.28;100.00
23899;BME280;20544;50.018;20.010;2024-02-26T06:59:02;97855.56;;;5.28;100.00
23899;BME280;20544;50.018;20.010;2024-02-26T07:02:20;97870.97;;;5.40;100.00
23899;BME280;20544;50.018;20.010;2024-02-26T07:05:40;97877.21;;;5.39;100.00
23899;BME280;20544;50.018;20.010;2024-02-26T07:08:59;97855.10;;;5.56;100.00
23899;BME280;20544;50.018;20.010;2024-02-26T07:12:17;97865.71;;;5.71;100.00
23899;BME280;20544;50.018;20.010;2024-02-26T07:15:35;97866.19;;;5.75;100.00
23899;BME280;20544;50.018;20.010;2024-02-26T07:18:53;97876.65;;;5.83;100.00
23899;BME280;20544;50.018;20.010;2024-02-26T07:22:11;97864.73;;;5.95;100.00
23899;BME280;20544;50.018;20.010;2024-02-26T07:25:29;97866.98;;;6.07;100.00
23899;BME280;20544;50.018;20.010;2024-02-26T07:28:53;97868.88;;;6.21;100.00
23899;BME280;20544;50.018;20.010;2024-02-26T07:32:11;97874.20;;;6.36;100.00
23899;BME280;20544;50.018;20.010;2024-02-26T07:35:29;97867.09;;;6.37;100.00
23899;BME280;20544;50.018;20.010;2024-02-26T07:38:58;97859.89;;;6.54;100.00
23899;BME280;20544;50.018;20.010;2024-02-26T07:42:37;97862.37;;;6.70;100.00
23899;BME280;20544;50.018;20.010;2024-02-26T07:46:20;97872.59;;;6.88;100.00
23899;BME280;20544;50.018;20.010;2024-02-26T07:49:41;97876.49;;;6.92;100.00
23899;BME280;20544;50.018;20.010;2024-02-26T07:53:02;97859.95;;;7.13;100.00
23899;BME280;20544;50.018;20.010;2024-02-26T07:56:20;97867.06;;;7.28;100.00
23899;BME280;20544;50.018;20.010;2024-02-26T07:59:38;97857.23;;;7.37;100.00
23899;BME280;20544;50.018;20.010;2024-02-26T08:03:00;97866.47;;;7.48;100.00
23899;BME280;20544;50.018;20.010;2024-02-26T08:06:18;97866.77;;;7.53;100.00
23899;BME280;20544;50.018;20.010;2024-02-26T08:09:36;97860.17;;;7.64;100.00
23899;BME280;20544;50.018;20.010;2024-02-26T08:12:55;97867.99;;;7.72;100.00
23899;BME280;20544;50.018;20.010;2024-02-26T08:16:15;97859.03;;;7.88;100.00
23899;BME280;20544;50.018;20.010;2024-02-26T08:19:33;97868.15;;;8.29;100.00
23899;BME280;20544;50.018;20.010;2024-02-26T08:22:51;97875.20;;;8.65;100.00
23899;BME280;20544;50.018;20.010;2024-02-26T08:26:09;97875.27;;;9.00;100.00
23899;BME280;20544;50.018;20.010;2024-02-26T08:29:27;97876.62;;;9.24;100.00
23899;BME280;20544;50.018;20.010;2024-02-26T08:32:45;97879.97;;;9.39;100.00
23899;BME280;20544;50.018;20.010;2024-02-26T08:36:08;97875.78;;;9.65;100.00
23899;BME280;20544;50.018;20.010;2024-02-26T08:39:28;97879.91;;;9.75;100.00
23899;BME280;20544;50.018;20.010;2024-02-26T08:43:00;97880.72;;;9.75;100.00
23899;BME280;20544;50.018;20.010;2024-02-26T08:46:40;97884.99;;;9.69;100.00
23899;BME280;20544;50.018;20.010;2024-02-26T08:50:20;97879.69;;;9.69;100.00
23899;BME280;20544;50.018;20.010;2024-02-26T08:53:46;97865.45;;;9.77;100.00
23899;BME280;20544;50.018;20.010;2024-02-26T08:57:05;97863.88;;;10.03;100.00
23899;BME280;20544;50.018;20.010;2024-02-26T09:00:23;97862.30;;;10.29;100.00
23899;BME280;20544;50.018;20.010;2024-02-26T09:03:41;97869.08;;;10.45;100.00
23899;BME280;20544;50.018;20.010;2024-02-26T09:06:59;97865.20;;;10.61;100.00
23899;BME280;20544;50.018;20.010;2024-02-26T09:10:17;97857.86;;;10.83;100.00
23899;BME280;20544;50.018;20.010;2024-02-26T09:13:36;97861.47;;;11.09;100.00
23899;BME280;20544;50.018;20.010;2024-02-26T09:16:54;97865.09;;;11.35;100.00
23899;BME280;20544;50.018;20.010;2024-02-26T09:20:13;97859.12;;;11.53;100.00
23899;BME280;20544;50.018;20.010;2024-02-26T09:23:32;97858.19;;;11.72;100.00
23899;BME280;20544;50.018;20.010;2024-02-26T09:26:51;97869.00;;;11.77;100.00
23899;BME280;20544;50.018;20.010;2024-02-26T09:30:10;97869.39;;;11.81;100.00
23899;BME280;20544;50.018;20.010;2024-02-26T09:33:29;97870.05;;;11.76;100.00
23899;BME280;20544;50.018;20.010;2024-02-26T09:36:48;97873.47;;;11.84;100.00
23899;BME280;20544;50.018;20.010;2024-02-26T09:40:12;97874.25;;;11.91;100.00
23899;BME280;20544;50.018;20.010;2024-02-26T09:43:44;97882.05;;;11.86;100.00
23899;BME280;20544;50.018;20.010;2024-02-26T09:47:03;97876.33;;;11.89;100.00
23899;BME280;20544;50.018;20.010;2024-02-26T09:50:25;97878.11;;;11.95;100.00
23899;BME280;20544;50.018;20.010;2024-02-26T09:54:15;97870.19;;;12.27;100.00
23899;BME280;20544;50.018;20.010;2024-02-26T09:58:04;97869.01;;;12.73;100.00
23899;BME280;20544;50.018;20.010;2024-02-26T10:01:43;97869.03;;;13.17;100.00
23899;BME280;20544;50.018;20.010;2024-02-26T10:05:17;97876.00;;;13.55;100.00
23899;BME280;20544;50.018;20.010;2024-02-26T10:08:55;97876.72;;;13.81;100.00
23899;BME280;20544;50.018;20.010;2024-02-26T10:12:30;97867.91;;;14.11;100.00
23899;BME280;20544;50.018;20.010;2024-02-26T10:15:54;97859.30;;;14.39;100.00
23899;BME280;20544;50.018;20.010;2024-02-26T10:19:35;97856.08;;;14.61;100.00
23899;BME280;20544;50.018;20.010;2024-02-26T10:23:09;97873.41;;;14.82;100.00
23899;BME280;20544;50.018;20.010;2024-02-26T10:26:27;97863.80;;;14.93;100.00
23899;BME280;20544;50.018;20.010;2024-02-26T10:29:46;97856.70;;;15.11;100.00
23899;BME280;20544;50.018;20.010;2024-02-26T10:33:08;97865.14;;;15.31;100.00
23899;BME280;20544;50.018;20.010;2024-02-26T10:36:28;97864.43;;;15.48;100.00
23899;BME280;20544;50.018;20.010;2024-02-26T10:39:50;97861.95;;;15.58;100.00
23899;BME280;20544;50.018;20.010;2024-02-26T10:43:08;97862.49;;;15.72;100.00
23899;BME280;20544;50.018;20.010;2024-02-26T10:46:27;97858.53;;;15.87;100.00
23899;BME280;20544;50.018;20.010;2024-02-26T10:49:50;97856.63;;;15.99;100.00
23899;BME280;20544;50.018;20.010;2024-02-26T10:53:23;97858.42;;;16.10;100.00
23899;BME280;20544;50.018;20.010;2024-02-26T10:57:09;97851.89;;;15.89;100.00
23899;BME280;20544;50.018;20.010;2024-02-26T11:00:48;97850.23;;;16.00;100.00
23899;BME280;20544;50.018;20.010;2024-02-26T11:04:25;97842.91;;;15.95;100.00
23899;BME280;20544;50.018;20.010;2024-02-26T11:07:55;97843.84;;;16.18;100.00
23899;BME280;20544;50.018;20.010;2024-02-26T11:11:18;97843.34;;;16.21;100.00
23899;BME280;20544;50.018;20.010;2024-02-26T11:14:35;97842.73;;;16.48;100.00
23899;BME280;20544;50.018;20.010;2024-02-26T11:17:54;97848.67;;;16.50;100.00
23899;BME280;20544;50.018;20.010;2024-02-26T11:21:15;97848.89;;;16.65;100.00
23899;BME280;20544;50.018;20.010;2024-02-26T11:24:35;97838.84;;;16.56;100.00
23899;BME280;20544;50.018;20.010;2024-02-26T11:27:56;97844.72;;;16.07;100.00
23899;BME280;20544;50.018;20.010;2024-02-26T11:31:17;97831.81;;;16.04;100.00
23899;BME280;20544;50.018;20.010;2024-02-26T11:34:37;97839.95;;;16.09;100.00
23899;BME280;20544;50.018;20.010;2024-02-26T11:38:45;97832.34;;;16.34;100.00
23899;BME280;20544;50.018;20.010;2024-02-26T11:42:23;97822.61;;;16.28;100.00
23899;BME280;20544;50.018;20.010;2024-02-26T11:45:54;97818.69;;;16.02;100.00
23899;BME280;20544;50.018;20.010;2024-02-26T11:49:30;97823.08;;;16.08;100.00
23899;BME280;20544;50.018;20.010;2024-02-26T11:56:43;97823.70;;;15.98;100.00
23899;BME280;20544;50.018;20.010;2024-02-26T12:00:34;97826.88;;;15.95;100.00
23899;BME280;20544;50.018;20.010;2024-02-26T12:04:05;97826.30;;;15.93;100.00
23899;BME280;20544;50.018;20.010;2024-02-26T12:07:49;97829.37;;;15.85;100.00
23899;BME280;20544;50.018;20.010;2024-02-26T12:11:44;97823.44;;;15.83;100.00
23899;BME280;20544;50.018;20.010;2024-02-26T12:15:27;97827.84;;;15.77;100.00
23899;BME280;20544;50.018;20.010;2024-02-26T12:18:56;97816.30;;;15.89;100.00
23899;BME280;20544;50.018;20.010;2024-02-26T12:22:15;97810.00;;;15.95;100.00
23899;BME280;20544;50.018;20.010;2024-02-26T12:25:31;97802.23;;;15.93;100.00
23899;BME280;20544;50.018;20.010;2024-02-26T12:28:50;97808.87;;;15.91;100.00
23899;BME280;20544;50.018;20.010;2024-02-26T12:32:08;97806.57;;;15.82;100.00
23899;BME280;20544;50.018;20.010;2024-02-26T12:35:27;97811.12;;;15.82;100.00
23899;BME280;20544;50.018;20.010;2024-02-26T12:38:45;97810.17;;;15.76;100.00
23899;BME280;20544;50.018;20.010;2024-02-26T12:42:04;97806.76;;;15.64;100.00
23899;BME280;20544;50.018;20.010;2024-02-26T12:45:23;97802.22;;;15.64;100.00
23899;BME280;20544;50.018;20.010;2024-02-26T12:48:45;97806.98;;;15.62;100.00
23899;BME280;20544;50.018;20.010;2024-02-26T12:52:05;97812.72;;;15.54;100.00
23899;BME280;20544;50.018;20.010;2024-02-26T12:55:23;97810.99;;;15.48;100.00
23899;BME280;20544;50.018;20.010;2024-02-26T12:58:44;97812.28;;;15.45;100.00
23899;BME280;20544;50.018;20.010;2024-02-26T13:02:05;97810.55;;;15.39;100.00
23899;BME280;20544;50.018;20.010;2024-02-26T13:05:28;97809.63;;;15.33;100.00
23899;BME280;20544;50.018;20.010;2024-02-26T13:08:47;97800.81;;;15.33;100.00
23899;BME280;20544;50.018;20.010;2024-02-26T13:12:12;97813.92;;;15.34;100.00
23899;BME280;20544;50.018;20.010;2024-02-26T13:15:35;97811.71;;;15.31;100.00
23899;BME280;20544;50.018;20.010;2024-02-26T13:18:56;97817.09;;;15.19;100.00
23899;BME280;20544;50.018;20.010;2024-02-26T13:22:16;97814.22;;;15.09;100.00
23899;BME280;20544;50.018;20.010;2024-02-26T13:25:35;97815.26;;;15.08;100.00
23899;BME280;20544;50.018;20.010;2024-02-26T13:29:07;97818.63;;;15.03;100.00
23899;BME280;20544;50.018;20.010;2024-02-26T13:32:28;97809.23;;;15.01;100.00
23899;BME280;20544;50.018;20.010;2024-02-26T13:35:46;97815.95;;;15.03;100.00
23899;BME280;20544;50.018;20.010;2024-02-26T13:39:06;97811.30;;;14.99;100.00
23899;BME280;20544;50.018;20.010;2024-02-26T13:42:30;97814.80;;;14.99;100.00
23899;BME280;20544;50.018;20.010;2024-02-26T13:45:49;97821.19;;;14.98;100.00
23899;BME280;20544;50.018;20.010;2024-02-26T13:49:10;97829.33;;;14.92;100.00
23899;BME280;20544;50.018;20.010;2024-02-26T13:52:30;97826.42;;;14.93;100.00
23899;BME280;20544;50.018;20.010;2024-02-26T13:55:51;97824.55;;;14.94;100.00
23899;BME280;20544;50.018;20.010;2024-02-26T13:59:16;97832.00;;;14.92;100.00
23899;BME280;20544;50.018;20.010;2024-02-26T14:02:34;97830.58;;;14.89;100.00
23899;BME280;20544;50.018;20.010;2024-02-26T14:05:53;97829.89;;;14.94;100.00
23899;BME280;20544;50.018;20.010;2024-02-26T14:09:13;97826.77;;;14.97;100.00
23899;BME280;20544;50.018;20.010;2024-02-26T14:12:32;97824.45;;;15.00;100.00
23899;BME280;20544;50.018;20.010;2024-02-26T14:15:50;97834.64;;;15.03;100.00
23899;BME280;20544;50.018;20.010;2024-02-26T14:19:09;97834.98;;;14.95;100.00
23899;BME280;20544;50.018;20.010;2024-02-26T14:22:31;97833.39;;;14.94;100.00
23899;BME280;20544;50.018;20.010;2024-02-26T14:25:50;97829.89;;;14.94;100.00
23899;BME280;20544;50.018;20.010;2024-02-26T14:29:08;97823.16;;;14.91;100.00
23899;BME280;20544;50.018;20.010;2024-02-26T14:32:29;97819.44;;;14.80;100.00
23899;BME280;20544;50.018;20.010;2024-02-26T14:35:49;97836.52;;;14.79;100.00
23899;BME280;20544;50.018;20.010;2024-02-26T14:39:08;97844.53;;;14.79;100.00
23899;BME280;20544;50.018;20.010;2024-02-26T14:42:26;97848.69;;;14.75;100.00
23899;BME280;20544;50.018;20.010;2024-02-26T14:45:46;97844.86;;;14.71;100.00
23899;BME280;20544;50.018;20.010;2024-02-26T14:49:18;97851.57;;;14.62;100.00
23899;BME280;20544;50.018;20.010;2024-02-26T14:57:33;97842.02;;;14.54;100.00
23899;BME280;20544;50.018;20.010;2024-02-26T15:00:51;97841.91;;;14.49;100.00
23899;BME280;20544;50.018;20.010;2024-02-26T15:04:10;97843.98;;;14.35;100.00
23899;BME280;20544;50.018;20.010;2024-02-26T15:07:29;97848.95;;;14.31;100.00
23899;BME280;20544;50.018;20.010;2024-02-26T15:10:49;97855.45;;;14.35;100.00
23899;BME280;20544;50.018;20.010;2024-02-26T15:14:08;97856.04;;;14.37;100.00
23899;BME280;20544;50.018;20.010;2024-02-26T15:17:25;97851.86;;;14.30;100.00
23899;BME280;20544;50.018;20.010;2024-02-26T15:20:46;97860.77;;;14.23;100.00
23899;BME280;20544;50.018;20.010;2024-02-26T15:24:04;97858.34;;;14.22;100.00
23899;BME280;20544;50.018;20.010;2024-02-26T15:27:28;97859.81;;;14.18;100.00
23899;BME280;20544;50.018;20.010;2024-02-26T15:30:48;97863.48;;;14.05;100.00
23899;BME280;20544;50.018;20.010;2024-02-26T15:34:05;97855.49;;;14.05;100.00
23899;BME280;20544;50.018;20.010;2024-02-26T15:37:24;97856.16;;;14.00;100.00
23899;BME280;20544;50.018;20.010;2024-02-26T15:40:42;97862.19;;;13.96;100.00
23899;BME280;20544;50.018;20.010;2024-02-26T15:44:03;97863.43;;;13.93;100.00
23899;BME280;20544;50.018;20.010;2024-02-26T15:47:26;97860.87;;;13.86;100.00
23899;BME280;20544;50.018;20.010;2024-02-26T15:50:46;97863.30;;;13.88;100.00
23899;BME280;20544;50.018;20.010;2024-02-26T15:54:11;97867.77;;;13.75;100.00
23899;BME280;20544;50.018;20.010;2024-02-26T15:57:29;97872.89;;;13.77;100.00
23899;BME280;20544;50.018;20.010;2024-02-26T16:00:50;97873.98;;;13.69;100.00
23899;BME280;20544;50.018;20.010;2024-02-26T16:04:10;97882.88;;;13.63;100.00
23899;BME280;20544;50.018;20.010;2024-02-26T16:07:32;97882.36;;;13.54;100.00
23899;BME280;20544;50.018;20.010;2024-02-26T16:10:54;97889.09;;;13.57;100.00
23899;BME280;20544;50.018;20.010;2024-02-26T16:14:19;97880.30;;;13.56;100.00
23899;BME280;20544;50.018;20.010;2024-02-26T16:17:44;97887.69;;;13.54;100.00
23899;BME280;20544;50.018;20.010;2024-02-26T16:21:17;97889.92;;;13.39;100.00
23899;BME280;20544;50.018;20.010;2024-02-26T16:24:47;97895.48;;;13.37;100.00
23899;BME280;20544;50.018;20.010;2024-02-26T16:28:06;97890.77;;;13.33;100.00
23899;BME280;20544;50.018;20.010;2024-02-26T16:31:24;97895.80;;;13.22;100.00
23899;BME280;20544;50.018;20.010;2024-02-26T16:34:42;97898.52;;;13.16;100.00
23899;BME280;20544;50.018;20.010;2024-02-26T16:38:03;97894.25;;;13.15;100.00
23899;BME280;20544;50.018;20.010;2024-02-26T16:41:22;97891.41;;;13.09;100.00
23899;BME280;20544;50.018;20.010;2024-02-26T16:44:41;97886.53;;;13.06;100.00
23899;BME280;20544;50.018;20.010;2024-02-26T16:47:59;97896.27;;;12.94;100.00
23899;BME280;20544;50.018;20.010;2024-02-26T16:51:18;97897.37;;;12.86;100.00
23899;BME280;20544;50.018;20.010;2024-02-26T16:54:37;97892.92;;;12.80;100.00
23899;BME280;20544;50.018;20.010;2024-02-26T16:57:59;97904.42;;;12.74;100.00
23899;BME280;20544;50.018;20.010;2024-02-26T17:01:17;97901.99;;;12.72;100.00
23899;BME280;20544;50.018;20.010;2024-02-26T17:04:38;97899.52;;;12.71;100.00
23899;BME280;20544;50.018;20.010;2024-02-26T17:07:58;97914.52;;;12.65;100.00
23899;BME280;20544;50.018;20.010;2024-02-26T17:11:18;97907.13;;;12.67;100.00
23899;BME280;20544;50.018;20.010;2024-02-26T17:14:38;97911.70;;;12.60;100.00
23899;BME280;20544;50.018;20.010;2024-02-26T17:18:02;97915.63;;;12.51;100.00
23899;BME280;20544;50.018;20.010;2024-02-26T17:21:23;97917.74;;;12.42;100.00
23899;BME280;20544;50.018;20.010;2024-02-26T17:24:52;97925.72;;;12.42;100.00
23899;BME280;20544;50.018;20.010;2024-02-26T17:28:26;97923.91;;;12.36;100.00
23899;BME280;20544;50.018;20.010;2024-02-26T17:31:46;97926.36;;;12.37;100.00
23899;BME280;20544;50.018;20.010;2024-02-26T17:35:07;97926.23;;;12.25;100.00